sensor_id;sensor_type;location;lat;lon;timestamp;temperature;humidity
9915;DHT22;4996;48.746;9.174;2023-06-22T00:01:47;23.00;99.90
9915;DHT22;4996;48.746;9.174;2023-06-22T00:04:13;23.00;99.90
9915;DHT22;4996;48.746;9.174;2023-06-22T00:06:38;23.00;99.90
9915;DHT22;4996;48.746;9.174;2023-06-22T00:09:04;23.00;99.90
9915;DHT22;4996;48.746;9.174;2023-06-22T00:11:29;22.90;99.90
9915;DHT22;4996;48.746;9.174;2023-06-22T00:13:58;23.00;99.90
9915;DHT22;4996;48.746;9.174;2023-06-22T00:16:23;22.80;99.90
9915;DHT22;4996;48.746;9.174;2023-06-22T00:18:49;22.80;99.90
9915;DHT22;4996;48.746;9.174;2023-06-22T00:21:14;22.70;99.90
9915;DHT22;4996;48.746;9.174;2023-06-22T00:23:40;22.70;99.90
9915;DHT22;4996;48.746;9.174;2023-06-22T00:26:06;22.70;99.90
9915;DHT22;4996;48.746;9.174;2023-06-22T00:28:32;22.60;99.90
9915;DHT22;4996;48.746;9.174;2023-06-22T00:30:57;22.60;99.90
9915;DHT22;4996;48.746;9.174;2023-06-22T00:33:23;22.60;99.90
9915;DHT22;4996;48.746;9.174;2023-06-22T00:35:48;22.60;99.90
9915;DHT22;4996;48.746;9.174;2023-06-22T00:38:18;22.50;99.90
9915;DHT22;4996;48.746;9.174;2023-06-22T00:40:43;22.50;99.90
9915;DHT22;4996;48.746;9.174;2023-06-22T00:43:09;22.40;99.90
9915;DHT22;4996;48.746;9.174;2023-06-22T00:45:34;22.50;99.90
9915;DHT22;4996;48.746;9.174;2023-06-22T00:48:00;22.40;99.90
9915;DHT22;4996;48.746;9.174;2023-06-22T00:50:28;22.30;99.90
9915;DHT22;4996;48.746;9.174;2023-06-22T00:53:00;22.40;99.90
9915;DHT22;4996;48.746;9.174;2023-06-22T00:55:26;22.40;99.90
9915;DHT22;4996;48.746;9.174;2023-06-22T00:57:52;22.40;99.90
9915;DHT22;4996;48.746;9.174;2023-06-22T01:00:25;22.40;99.90
9915;DHT22;4996;48.746;9.174;2023-06-22T01:02:52;22.40;99.90
9915;DHT22;4996;48.746;9.174;2023-06-22T01:05:19;22.50;99.90
9915;DHT22;4996;48.746;9.174;2023-06-22T01:08:04;22.60;99.90
9915;DHT22;4996;48.746;9.174;2023-06-22T01:10:45;22.70;99.90
9915;DHT22;4996;48.746;9.174;2023-06-22T01:13:45;22.70;99.90
9915;DHT22;4996;48.746;9.174;2023-06-22T01:16:18;22.70;99.90
9915;DHT22;4996;48.746;9.174;2023-06-22T01:18:47;22.80;99.90
9915;DHT22;4996;48.746;9.174;2023-06-22T01:21:17;22.70;99.90
9915;DHT22;4996;48.746;9.174;2023-06-22T01:24:10;22.70;99.90
9915;DHT22;4996;48.746;9.174;2023-06-22T01:26:42;22.70;99.90
9915;DHT22;4996;48.746;9.174;2023-06-22T01:29:10;22.70;99.90
9915;DHT22;4996;48.746;9.174;2023-06-22T01:31:40;22.80;99.90
9915;DHT22;4996;48.746;9.174;2023-06-22T01:34:08;22.70;99.90
9915;DHT22;4996;48.746;9.174;2023-06-22T01:36:34;22.60;99.90
9915;DHT22;4996;48.746;9.174;2023-06-22T01:39:02;22.60;99.90
9915;DHT22;4996;48.746;9.174;2023-06-22T01:41:30;22.60;99.90
9915;DHT22;4996;48.746;9.174;2023-06-22T01:43:56;22.60;99.90
9915;DHT22;4996;48.746;9.174;2023-06-22T01:46:23;22.40;99.90
9915;DHT22;4996;48.746;9.174;2023-06-22T01:48:49;22.40;99.90
9915;DHT22;4996;48.746;9.174;2023-06-22T01:51:16;22.50;99.90
9915;DHT22;4996;48.746;9.174;2023-06-22T01:53:41;22.50;99.90
9915;DHT22;4996;48.746;9.174;2023-06-22T01:56:08;22.50;99.90
9915;DHT22;4996;48.746;9.174;2023-06-22T01:58:37;22.60;99.90
9915;DHT22;4996;48.746;9.174;2023-06-22T02:01:13;22.60;99.90
9915;DHT22;4996;48.746;9.174;2023-06-22T02:03:55;22.50;99.90
9915;DHT22;4996;48.746;9.174;2023-06-22T02:06:31;22.60;99.90
9915;DHT22;4996;48.746;9.174;2023-06-22T02:09:02;22.60;99.90
9915;DHT22;4996;48.746;9.174;2023-06-22T02:11:31;22.60;99.90
9915;DHT22;4996;48.746;9.174;2023-06-22T02:13:57;22.50;99.90
9915;DHT22;4996;48.746;9.174;2023-06-22T02:16:23;22.40;99.90
9915;DHT22;4996;48.746;9.174;2023-06-22T02:18:50;22.30;99.90
9915;DHT22;4996;48.746;9.174;2023-06-22T02:21:19;22.10;99.90
9915;DHT22;4996;48.746;9.174;2023-06-22T02:23:45;22.10;99.90
9915;DHT22;4996;48.746;9.174;2023-06-22T02:26:11;22.10;99.90
9915;DHT22;4996;48.746;9.174;2023-06-22T02:28:37;22.10;99.90
9915;DHT22;4996;48.746;9.174;2023-06-22T02:31:03;22.10;99.90
9915;DHT22;4996;48.746;9.174;2023-06-22T02:33:28;22.00;99.90
9915;DHT22;4996;48.746;9.174;2023-06-22T02:35:54;22.00;99.90
9915;DHT22;4996;48.746;9.174;2023-06-22T02:38:19;22.00;99.90
9915;DHT22;4996;48.746;9.174;2023-06-22T02:40:45;22.00;99.90
9915;DHT22;4996;48.746;9.174;2023-06-22T02:43:11;22.00;99.90
9915;DHT22;4996;48.746;9.174;2023-06-22T02:45:37;22.00;99.90
9915;DHT22;4996;48.746;9.174;2023-06-22T02:48:02;22.00;99.90
9915;DHT22;4996;48.746;9.174;2023-06-22T02:50:28;22.00;99.90
9915;DHT22;4996;48.746;9.174;2023-06-22T02:52:54;22.10;99.90
9915;DHT22;4996;48.746;9.174;2023-06-22T02:55:19;22.00;99.90
9915;DHT22;4996;48.746;9.174;2023-06-22T02:57:45;22.00;99.90
9915;DHT22;4996;48.746;9.174;2023-06-22T03:00:13;22.10;99.90
9915;DHT22;4996;48.746;9.174;2023-06-22T03:02:48;22.10;99.90
9915;DHT22;4996;48.746;9.174;2023-06-22T03:05:14;22.10;99.90
9915;DHT22;4996;48.746;9.174;2023-06-22T03:07:44;22.10;99.90
9915;DHT22;4996;48.746;9.174;2023-06-22T03:10:11;22.10;99.90
9915;DHT22;4996;48.746;9.174;2023-06-22T03:12:38;22.10;99.90
9915;DHT22;4996;48.746;9.174;2023-06-22T03:15:08;22.10;99.90
9915;DHT22;4996;48.746;9.174;2023-06-22T03:17:35;22.10;99.90
9915;DHT22;4996;48.746;9.174;2023-06-22T03:20:01;22.00;99.90
9915;DHT22;4996;48.746;9.174;2023-06-22T03:22:32;21.90;99.90
9915;DHT22;4996;48.746;9.174;2023-06-22T03:24:58;21.80;99.90
9915;DHT22;4996;48.746;9.174;2023-06-22T03:27:23;21.70;99.90
9915;DHT22;4996;48.746;9.174;2023-06-22T03:29:48;21.70;99.90
9915;DHT22;4996;48.746;9.174;2023-06-22T03:32:14;21.80;99.90
9915;DHT22;4996;48.746;9.174;2023-06-22T03:34:39;21.70;99.90
9915;DHT22;4996;48.746;9.174;2023-06-22T03:37:05;21.70;99.90
9915;DHT22;4996;48.746;9.174;2023-06-22T03:39:31;21.70;99.90
9915;DHT22;4996;48.746;9.174;2023-06-22T03:41:57;21.60;99.90
9915;DHT22;4996;48.746;9.174;2023-06-22T03:44:22;21.60;99.90
9915;DHT22;4996;48.746;9.174;2023-06-22T03:46:48;21.60;99.90
9915;DHT22;4996;48.746;9.174;2023-06-22T03:49:13;21.60;99.90
9915;DHT22;4996;48.746;9.174;2023-06-22T03:51:39;21.70;99.90
9915;DHT22;4996;48.746;9.174;2023-06-22T03:54:04;21.60;99.90
9915;DHT22;4996;48.746;9.174;2023-06-22T03:56:30;21.60;99.90
9915;DHT22;4996;48.746;9.174;2023-06-22T03:58:55;21.60;99.90
9915;DHT22;4996;48.746;9.174;2023-06-22T04:01:21;21.60;99.90
9915;DHT22;4996;48.746;9.174;2023-06-22T04:03:47;21.70;99.90
9915;DHT22;4996;48.746;9.174;2023-06-22T04:06:15;21.70;99.90
9915;DHT22;4996;48.746;9.174;2023-06-22T04:08:40;21.70;99.90
9915;DHT22;4996;48.746;9.174;2023-06-22T04:11:06;21.80;99.90
9915;DHT22;4996;48.746;9.174;2023-06-22T04:13:31;21.80;99.90
9915;DHT22;4996;48.746;9.174;2023-06-22T04:15:57;21.80;99.90
9915;DHT22;4996;48.746;9.174;2023-06-22T04:18:22;21.80;99.90
9915;DHT22;4996;48.746;9.174;2023-06-22T04:20:48;21.90;99.90
9915;DHT22;4996;48.746;9.174;2023-06-22T04:23:13;22.00;99.90
9915;DHT22;4996;48.746;9.174;2023-06-22T04:25:39;22.00;99.90
9915;DHT22;4996;48.746;9.174;2023-06-22T04:28:05;22.00;99.90
9915;DHT22;4996;48.746;9.174;2023-06-22T04:30:33;22.10;99.90
9915;DHT22;4996;48.746;9.174;2023-06-22T04:32:58;22.10;99.90
9915;DHT22;4996;48.746;9.174;2023-06-22T04:35:24;22.20;99.90
9915;DHT22;4996;48.746;9.174;2023-06-22T04:37:50;22.20;99.90
9915;DHT22;4996;48.746;9.174;2023-06-22T04:40:22;22.20;99.90
9915;DHT22;4996;48.746;9.174;2023-06-22T04:42:48;22.20;99.90
9915;DHT22;4996;48.746;9.174;2023-06-22T04:45:19;22.30;99.90
9915;DHT22;4996;48.746;9.174;2023-06-22T04:47:45;22.30;99.90
9915;DHT22;4996;48.746;9.174;2023-06-22T04:50:11;22.30;99.90
9915;DHT22;4996;48.746;9.174;2023-06-22T04:52:37;22.30;99.90
9915;DHT22;4996;48.746;9.174;2023-06-22T04:55:03;22.30;99.90
9915;DHT22;4996;48.746;9.174;2023-06-22T04:57:29;22.40;99.90
9915;DHT22;4996;48.746;9.174;2023-06-22T05:00:00;22.50;99.90
9915;DHT22;4996;48.746;9.174;2023-06-22T05:02:38;22.40;99.90
9915;DHT22;4996;48.746;9.174;2023-06-22T05:05:04;22.40;99.90
9915;DHT22;4996;48.746;9.174;2023-06-22T05:07:33;22.40;99.90
9915;DHT22;4996;48.746;9.174;2023-06-22T05:09:59;22.50;99.90
9915;DHT22;4996;48.746;9.174;2023-06-22T05:12:25;22.50;99.90
9915;DHT22;4996;48.746;9.174;2023-06-22T05:14:50;22.60;99.90
9915;DHT22;4996;48.746;9.174;2023-06-22T05:17:16;22.60;99.90
9915;DHT22;4996;48.746;9.174;2023-06-22T05:19:44;22.70;99.90
9915;DHT22;4996;48.746;9.174;2023-06-22T05:22:15;22.80;99.90
9915;DHT22;4996;48.746;9.174;2023-06-22T05:24:41;22.80;99.90
9915;DHT22;4996;48.746;9.174;2023-06-22T05:27:06;22.80;99.90
9915;DHT22;4996;48.746;9.174;2023-06-22T05:29:32;22.80;99.90
9915;DHT22;4996;48.746;9.174;2023-06-22T05:31:57;22.90;99.90
9915;DHT22;4996;48.746;9.174;2023-06-22T05:34:23;22.90;99.90
9915;DHT22;4996;48.746;9.174;2023-06-22T05:36:48;22.90;99.90
9915;DHT22;4996;48.746;9.174;2023-06-22T05:39:15;22.90;99.90
9915;DHT22;4996;48.746;9.174;2023-06-22T05:41:41;23.00;99.90
9915;DHT22;4996;48.746;9.174;2023-06-22T05:44:06;23.00;99.90
9915;DHT22;4996;48.746;9.174;2023-06-22T05:46:32;23.10;99.90
9915;DHT22;4996;48.746;9.174;2023-06-22T05:48:58;23.20;99.90
9915;DHT22;4996;48.746;9.174;2023-06-22T05:51:23;23.30;99.90
9915;DHT22;4996;48.746;9.174;2023-06-22T05:53:49;23.30;99.90
9915;DHT22;4996;48.746;9.174;2023-06-22T05:56:18;23.50;99.90
9915;DHT22;4996;48.746;9.174;2023-06-22T05:58:43;23.40;99.90
9915;DHT22;4996;48.746;9.174;2023-06-22T06:01:09;23.60;99.90
9915;DHT22;4996;48.746;9.174;2023-06-22T06:03:34;23.60;99.90
9915;DHT22;4996;48.746;9.174;2023-06-22T06:06:09;23.60;99.90
9915;DHT22;4996;48.746;9.174;2023-06-22T06:08:36;23.70;99.90
9915;DHT22;4996;48.746;9.174;2023-06-22T06:11:02;23.70;99.90
9915;DHT22;4996;48.746;9.174;2023-06-22T06:13:27;23.70;99.90
9915;DHT22;4996;48.746;9.174;2023-06-22T06:15:53;23.80;99.90
9915;DHT22;4996;48.746;9.174;2023-06-22T06:18:20;23.90;99.90
9915;DHT22;4996;48.746;9.174;2023-06-22T06:20:46;23.90;99.90
9915;DHT22;4996;48.746;9.174;2023-06-22T06:23:11;23.80;99.90
9915;DHT22;4996;48.746;9.174;2023-06-22T06:25:37;23.80;99.90
9915;DHT22;4996;48.746;9.174;2023-06-22T06:28:02;23.90;99.90
9915;DHT22;4996;48.746;9.174;2023-06-22T06:30:28;24.00;99.90
9915;DHT22;4996;48.746;9.174;2023-06-22T06:32:54;24.10;99.90
9915;DHT22;4996;48.746;9.174;2023-06-22T06:35:19;24.10;99.90
9915;DHT22;4996;48.746;9.174;2023-06-22T06:37:48;24.30;99.90
9915;DHT22;4996;48.746;9.174;2023-06-22T06:40:14;24.30;99.90
9915;DHT22;4996;48.746;9.174;2023-06-22T06:42:42;24.40;99.90
9915;DHT22;4996;48.746;9.174;2023-06-22T06:45:11;24.50;99.90
9915;DHT22;4996;48.746;9.174;2023-06-22T06:47:37;24.60;99.90
9915;DHT22;4996;48.746;9.174;2023-06-22T06:50:04;24.60;99.90
9915;DHT22;4996;48.746;9.174;2023-06-22T06:52:30;24.70;99.90
9915;DHT22;4996;48.746;9.174;2023-06-22T06:54:55;24.80;99.90
9915;DHT22;4996;48.746;9.174;2023-06-22T06:57:21;24.80;99.90
9915;DHT22;4996;48.746;9.174;2023-06-22T06:59:48;24.90;99.90
9915;DHT22;4996;48.746;9.174;2023-06-22T07:02:14;25.00;99.90
9915;DHT22;4996;48.746;9.174;2023-06-22T07:04:40;25.10;99.90
9915;DHT22;4996;48.746;9.174;2023-06-22T07:07:05;25.20;99.90
9915;DHT22;4996;48.746;9.174;2023-06-22T07:09:31;25.30;99.90
9915;DHT22;4996;48.746;9.174;2023-06-22T07:11:56;25.40;99.90
9915;DHT22;4996;48.746;9.174;2023-06-22T07:14:22;25.50;99.90
9915;DHT22;4996;48.746;9.174;2023-06-22T07:16:47;25.60;99.90
9915;DHT22;4996;48.746;9.174;2023-06-22T07:19:13;25.70;99.90
9915;DHT22;4996;48.746;9.174;2023-06-22T07:21:38;25.80;99.90
9915;DHT22;4996;48.746;9.174;2023-06-22T07:24:05;26.00;99.90
9915;DHT22;4996;48.746;9.174;2023-06-22T07:26:31;26.00;99.90
9915;DHT22;4996;48.746;9.174;2023-06-22T07:28:57;26.00;99.90
9915;DHT22;4996;48.746;9.174;2023-06-22T07:31:24;25.90;99.90
9915;DHT22;4996;48.746;9.174;2023-06-22T07:33:49;26.10;99.90
9915;DHT22;4996;48.746;9.174;2023-06-22T07:36:16;26.00;99.90
9915;DHT22;4996;48.746;9.174;2023-06-22T07:38:42;26.20;99.90
9915;DHT22;4996;48.746;9.174;2023-06-22T07:41:08;26.10;99.90
9915;DHT22;4996;48.746;9.174;2023-06-22T07:43:33;26.20;99.90
9915;DHT22;4996;48.746;9.174;2023-06-22T07:46:05;26.40;99.90
9915;DHT22;4996;48.746;9.174;2023-06-22T07:48:30;26.40;99.90
9915;DHT22;4996;48.746;9.174;2023-06-22T07:50:56;26.60;99.90
9915;DHT22;4996;48.746;9.174;2023-06-22T07:53:22;26.70;99.90
9915;DHT22;4996;48.746;9.174;2023-06-22T07:55:49;26.90;99.90
9915;DHT22;4996;48.746;9.174;2023-06-22T07:58:14;27.10;99.90
9915;DHT22;4996;48.746;9.174;2023-06-22T08:00:41;27.20;99.90
9915;DHT22;4996;48.746;9.174;2023-06-22T08:03:06;27.30;99.90
9915;DHT22;4996;48.746;9.174;2023-06-22T08:05:32;27.50;99.90
9915;DHT22;4996;48.746;9.174;2023-06-22T08:07:58;27.60;99.90
9915;DHT22;4996;48.746;9.174;2023-06-22T08:10:24;27.80;99.90
9915;DHT22;4996;48.746;9.174;2023-06-22T08:12:49;28.30;99.90
9915;DHT22;4996;48.746;9.174;2023-06-22T08:15:16;28.60;99.90
9915;DHT22;4996;48.746;9.174;2023-06-22T08:17:42;29.00;99.90
9915;DHT22;4996;48.746;9.174;2023-06-22T08:20:08;29.40;99.90
9915;DHT22;4996;48.746;9.174;2023-06-22T08:22:41;29.40;99.90
9915;DHT22;4996;48.746;9.174;2023-06-22T08:25:07;29.60;99.90
9915;DHT22;4996;48.746;9.174;2023-06-22T08:27:33;29.50;99.90
9915;DHT22;4996;48.746;9.174;2023-06-22T08:29:59;29.40;99.90
9915;DHT22;4996;48.746;9.174;2023-06-22T08:32:26;29.40;99.90
9915;DHT22;4996;48.746;9.174;2023-06-22T08:34:54;29.30;99.90
9915;DHT22;4996;48.746;9.174;2023-06-22T08:37:20;29.60;99.90
9915;DHT22;4996;48.746;9.174;2023-06-22T08:39:45;29.50;99.90
9915;DHT22;4996;48.746;9.174;2023-06-22T08:42:12;29.50;99.90
9915;DHT22;4996;48.746;9.174;2023-06-22T08:44:37;29.70;99.90
9915;DHT22;4996;48.746;9.174;2023-06-22T08:47:03;29.90;99.90
9915;DHT22;4996;48.746;9.174;2023-06-22T08:49:29;29.80;99.90
9915;DHT22;4996;48.746;9.174;2023-06-22T08:51:54;29.70;99.90
9915;DHT22;4996;48.746;9.174;2023-06-22T08:54:22;29.80;99.90
9915;DHT22;4996;48.746;9.174;2023-06-22T08:56:47;29.90;99.90
9915;DHT22;4996;48.746;9.174;2023-06-22T08:59:13;30.10;99.90
9915;DHT22;4996;48.746;9.174;2023-06-22T09:01:38;30.30;99.90
9915;DHT22;4996;48.746;9.174;2023-06-22T09:04:04;30.40;99.90
9915;DHT22;4996;48.746;9.174;2023-06-22T09:06:31;30.50;99.90
9915;DHT22;4996;48.746;9.174;2023-06-22T09:08:57;30.40;99.90
9915;DHT22;4996;48.746;9.174;2023-06-22T09:11:25;30.10;99.90
9915;DHT22;4996;48.746;9.174;2023-06-22T09:13:50;30.10;99.90
9915;DHT22;4996;48.746;9.174;2023-06-22T09:16:17;30.10;99.90
9915;DHT22;4996;48.746;9.174;2023-06-22T09:18:45;30.40;99.90
9915;DHT22;4996;48.746;9.174;2023-06-22T09:21:11;30.40;99.90
9915;DHT22;4996;48.746;9.174;2023-06-22T09:23:37;30.60;99.90
9915;DHT22;4996;48.746;9.174;2023-06-22T09:26:02;31.00;99.90
9915;DHT22;4996;48.746;9.174;2023-06-22T09:28:29;31.30;99.90
9915;DHT22;4996;48.746;9.174;2023-06-22T09:30:54;31.40;99.90
9915;DHT22;4996;48.746;9.174;2023-06-22T09:33:23;31.80;99.90
9915;DHT22;4996;48.746;9.174;2023-06-22T09:35:49;32.00;99.90
9915;DHT22;4996;48.746;9.174;2023-06-22T09:38:16;32.40;99.90
9915;DHT22;4996;48.746;9.174;2023-06-22T09:40:42;32.50;99.90
9915;DHT22;4996;48.746;9.174;2023-06-22T09:43:07;32.50;99.90
9915;DHT22;4996;48.746;9.174;2023-06-22T09:45:33;32.40;99.90
9915;DHT22;4996;48.746;9.174;2023-06-22T09:47:58;32.50;99.90
9915;DHT22;4996;48.746;9.174;2023-06-22T09:50:24;32.80;99.90
9915;DHT22;4996;48.746;9.174;2023-06-22T09:52:49;32.70;99.90
9915;DHT22;4996;48.746;9.174;2023-06-22T09:55:22;32.90;99.90
9915;DHT22;4996;48.746;9.174;2023-06-22T09:57:48;33.00;99.90
9915;DHT22;4996;48.746;9.174;2023-06-22T10:00:16;32.90;99.90
9915;DHT22;4996;48.746;9.174;2023-06-22T10:02:42;32.80;99.90
9915;DHT22;4996;48.746;9.174;2023-06-22T10:05:08;32.40;99.90
9915;DHT22;4996;48.746;9.174;2023-06-22T10:07:34;32.30;99.90
9915;DHT22;4996;48.746;9.174;2023-06-22T10:09:59;32.10;99.90
9915;DHT22;4996;48.746;9.174;2023-06-22T10:12:27;31.80;99.90
9915;DHT22;4996;48.746;9.174;2023-06-22T10:14:53;31.80;99.90
9915;DHT22;4996;48.746;9.174;2023-06-22T10:17:18;31.50;99.90
9915;DHT22;4996;48.746;9.174;2023-06-22T10:19:44;31.40;99.90
9915;DHT22;4996;48.746;9.174;2023-06-22T10:22:09;31.50;99.90
9915;DHT22;4996;48.746;9.174;2023-06-22T10:24:35;31.50;99.90
9915;DHT22;4996;48.746;9.174;2023-06-22T10:27:01;31.30;99.90
9915;DHT22;4996;48.746;9.174;2023-06-22T10:29:26;31.50;99.90
9915;DHT22;4996;48.746;9.174;2023-06-22T10:31:51;31.80;99.90
9915;DHT22;4996;48.746;9.174;2023-06-22T10:34:17;32.00;99.90
9915;DHT22;4996;48.746;9.174;2023-06-22T10:36:42;32.30;99.90
9915;DHT22;4996;48.746;9.174;2023-06-22T10:39:08;32.30;99.90
9915;DHT22;4996;48.746;9.174;2023-06-22T10:41:35;32.30;99.90
9915;DHT22;4996;48.746;9.174;2023-06-22T10:44:00;32.50;99.90
9915;DHT22;4996;48.746;9.174;2023-06-22T10:46:26;32.60;99.90
9915;DHT22;4996;48.746;9.174;2023-06-22T10:48:52;32.70;99.90
9915;DHT22;4996;48.746;9.174;2023-06-22T10:51:20;33.00;99.90
9915;DHT22;4996;48.746;9.174;2023-06-22T10:53:46;32.50;99.90
9915;DHT22;4996;48.746;9.174;2023-06-22T10:56:11;32.60;99.90
9915;DHT22;4996;48.746;9.174;2023-06-22T10:58:38;32.40;99.90
9915;DHT22;4996;48.746;9.174;2023-06-22T11:01:03;32.20;99.90
9915;DHT22;4996;48.746;9.174;2023-06-22T11:03:29;32.10;99.90
9915;DHT22;4996;48.746;9.174;2023-06-22T11:05:54;32.30;99.90
9915;DHT22;4996;48.746;9.174;2023-06-22T11:08:20;32.50;99.90
9915;DHT22;4996;48.746;9.174;2023-06-22T11:10:45;32.50;99.90
9915;DHT22;4996;48.746;9.174;2023-06-22T11:13:11;32.60;99.90
9915;DHT22;4996;48.746;9.174;2023-06-22T11:15:36;32.60;99.90
9915;DHT22;4996;48.746;9.174;2023-06-22T11:18:02;32.50;99.90
9915;DHT22;4996;48.746;9.174;2023-06-22T11:20:27;32.40;99.90
9915;DHT22;4996;48.746;9.174;2023-06-22T11:22:53;32.20;99.90
9915;DHT22;4996;48.746;9.174;2023-06-22T11:25:18;32.20;99.90
9915;DHT22;4996;48.746;9.174;2023-06-22T11:27:44;32.30;99.90
9915;DHT22;4996;48.746;9.174;2023-06-22T11:30:10;32.50;99.90
9915;DHT22;4996;48.746;9.174;2023-06-22T11:32:35;32.40;99.90
9915;DHT22;4996;48.746;9.174;2023-06-22T11:35:01;32.30;99.90
9915;DHT22;4996;48.746;9.174;2023-06-22T11:37:26;32.10;99.90
9915;DHT22;4996;48.746;9.174;2023-06-22T11:39:52;32.30;99.90
9915;DHT22;4996;48.746;9.174;2023-06-22T11:42:20;32.70;99.90
9915;DHT22;4996;48.746;9.174;2023-06-22T11:44:45;33.00;99.90
9915;DHT22;4996;48.746;9.174;2023-06-22T11:47:11;33.10;99.90
9915;DHT22;4996;48.746;9.174;2023-06-22T11:49:36;33.40;99.90
9915;DHT22;4996;48.746;9.174;2023-06-22T11:52:02;33.50;99.90
9915;DHT22;4996;48.746;9.174;2023-06-22T11:54:28;33.80;99.90
9915;DHT22;4996;48.746;9.174;2023-06-22T11:56:53;33.80;99.90
9915;DHT22;4996;48.746;9.174;2023-06-22T11:59:19;33.70;99.90
9915;DHT22;4996;48.746;9.174;2023-06-22T12:01:44;33.80;99.90
9915;DHT22;4996;48.746;9.174;2023-06-22T12:04:10;33.90;99.90
9915;DHT22;4996;48.746;9.174;2023-06-22T12:06:37;33.90;99.90
9915;DHT22;4996;48.746;9.174;2023-06-22T12:09:04;33.70;99.60
9915;DHT22;4996;48.746;9.174;2023-06-22T12:11:30;33.60;99.50
9915;DHT22;4996;48.746;9.174;2023-06-22T12:13:56;33.70;99.60
9915;DHT22;4996;48.746;9.174;2023-06-22T12:16:21;33.30;99.90
9915;DHT22;4996;48.746;9.174;2023-06-22T12:18:47;33.10;99.90
9915;DHT22;4996;48.746;9.174;2023-06-22T12:21:13;32.90;99.90
9915;DHT22;4996;48.746;9.174;2023-06-22T12:23:38;32.90;99.90
9915;DHT22;4996;48.746;9.174;2023-06-22T12:26:03;33.00;99.90
9915;DHT22;4996;48.746;9.174;2023-06-22T12:28:29;32.80;99.90
9915;DHT22;4996;48.746;9.174;2023-06-22T12:30:54;32.70;99.90
9915;DHT22;4996;48.746;9.174;2023-06-22T12:33:20;32.50;99.90
9915;DHT22;4996;48.746;9.174;2023-06-22T12:35:45;32.30;99.90
9915;DHT22;4996;48.746;9.174;2023-06-22T12:38:11;32.30;99.90
9915;DHT22;4996;48.746;9.174;2023-06-22T12:40:37;32.20;99.90
9915;DHT22;4996;48.746;9.174;2023-06-22T12:43:02;32.10;99.90
9915;DHT22;4996;48.746;9.174;2023-06-22T12:45:28;32.00;99.90
9915;DHT22;4996;48.746;9.174;2023-06-22T12:47:57;32.00;99.90
9915;DHT22;4996;48.746;9.174;2023-06-22T12:50:22;31.80;99.90
9915;DHT22;4996;48.746;9.174;2023-06-22T12:52:48;31.90;99.90
9915;DHT22;4996;48.746;9.174;2023-06-22T12:55:13;32.00;99.90
9915;DHT22;4996;48.746;9.174;2023-06-22T12:57:39;32.10;99.90
9915;DHT22;4996;48.746;9.174;2023-06-22T13:00:05;31.90;99.90
9915;DHT22;4996;48.746;9.174;2023-06-22T13:02:33;31.90;99.90
9915;DHT22;4996;48.746;9.174;2023-06-22T13:04:58;31.90;99.90
9915;DHT22;4996;48.746;9.174;2023-06-22T13:07:23;32.00;99.90
9915;DHT22;4996;48.746;9.174;2023-06-22T13:09:50;31.90;99.90
9915;DHT22;4996;48.746;9.174;2023-06-22T13:12:22;32.00;99.90
9915;DHT22;4996;48.746;9.174;2023-06-22T13:14:48;32.00;99.90
9915;DHT22;4996;48.746;9.174;2023-06-22T13:17:14;32.10;99.90
9915;DHT22;4996;48.746;9.174;2023-06-22T13:19:40;32.30;99.90
9915;DHT22;4996;48.746;9.174;2023-06-22T13:22:26;32.10;99.90
9915;DHT22;4996;48.746;9.174;2023-06-22T13:24:52;32.20;99.90
9915;DHT22;4996;48.746;9.174;2023-06-22T13:27:17;32.50;99.90
9915;DHT22;4996;48.746;9.174;2023-06-22T13:29:43;32.70;99.90
9915;DHT22;4996;48.746;9.174;2023-06-22T13:32:08;32.70;99.90
9915;DHT22;4996;48.746;9.174;2023-06-22T13:34:34;33.20;99.90
9915;DHT22;4996;48.746;9.174;2023-06-22T13:36:59;32.90;99.90
9915;DHT22;4996;48.746;9.174;2023-06-22T13:39:25;32.90;99.70
9915;DHT22;4996;48.746;9.174;2023-06-22T13:41:50;33.00;99.90
9915;DHT22;4996;48.746;9.174;2023-06-22T13:44:16;33.10;99.90
9915;DHT22;4996;48.746;9.174;2023-06-22T13:46:41;33.10;99.20
9915;DHT22;4996;48.746;9.174;2023-06-22T13:49:07;33.10;99.40
9915;DHT22;4996;48.746;9.174;2023-06-22T13:51:32;33.20;99.90
9915;DHT22;4996;48.746;9.174;2023-06-22T13:53:58;33.30;99.90
9915;DHT22;4996;48.746;9.174;2023-06-22T13:56:23;33.40;99.00
9915;DHT22;4996;48.746;9.174;2023-06-22T13:58:49;33.50;99.90
9915;DHT22;4996;48.746;9.174;2023-06-22T14:01:15;33.50;98.00
9915;DHT22;4996;48.746;9.174;2023-06-22T14:03:40;33.50;98.50
9915;DHT22;4996;48.746;9.174;2023-06-22T14:06:06;33.60;98.30
9915;DHT22;4996;48.746;9.174;2023-06-22T14:08:31;33.30;97.60
9915;DHT22;4996;48.746;9.174;2023-06-22T14:10:57;33.40;97.60
9915;DHT22;4996;48.746;9.174;2023-06-22T14:13:22;33.60;98.00
9915;DHT22;4996;48.746;9.174;2023-06-22T14:15:48;33.60;98.00
9915;DHT22;4996;48.746;9.174;2023-06-22T14:18:14;33.60;97.00
9915;DHT22;4996;48.746;9.174;2023-06-22T14:20:40;33.60;97.30
9915;DHT22;4996;48.746;9.174;2023-06-22T14:23:05;34.00;96.40
9915;DHT22;4996;48.746;9.174;2023-06-22T14:25:31;33.80;97.20
9915;DHT22;4996;48.746;9.174;2023-06-22T14:27:56;33.80;96.20
9915;DHT22;4996;48.746;9.174;2023-06-22T14:30:22;33.90;95.40
9915;DHT22;4996;48.746;9.174;2023-06-22T14:32:47;33.80;95.20
9915;DHT22;4996;48.746;9.174;2023-06-22T14:35:13;33.80;93.00
9915;DHT22;4996;48.746;9.174;2023-06-22T14:37:39;33.70;93.80
9915;DHT22;4996;48.746;9.174;2023-06-22T14:40:05;33.70;90.40
9915;DHT22;4996;48.746;9.174;2023-06-22T14:42:31;33.60;89.90
9915;DHT22;4996;48.746;9.174;2023-06-22T14:44:56;33.60;89.20
9915;DHT22;4996;48.746;9.174;2023-06-22T14:47:22;33.70;89.90
9915;DHT22;4996;48.746;9.174;2023-06-22T14:49:48;33.70;86.20
9915;DHT22;4996;48.746;9.174;2023-06-22T14:52:14;33.70;87.30
9915;DHT22;4996;48.746;9.174;2023-06-22T14:54:39;34.00;85.80
9915;DHT22;4996;48.746;9.174;2023-06-22T14:57:05;34.00;84.50
9915;DHT22;4996;48.746;9.174;2023-06-22T14:59:30;34.00;81.10
9915;DHT22;4996;48.746;9.174;2023-06-22T15:01:56;33.70;79.80
9915;DHT22;4996;48.746;9.174;2023-06-22T15:04:22;33.60;78.40
9915;DHT22;4996;48.746;9.174;2023-06-22T15:06:47;33.50;78.80
9915;DHT22;4996;48.746;9.174;2023-06-22T15:09:14;33.90;79.40
9915;DHT22;4996;48.746;9.174;2023-06-22T15:11:40;33.70;77.00
9915;DHT22;4996;48.746;9.174;2023-06-22T15:14:05;33.80;77.40
9915;DHT22;4996;48.746;9.174;2023-06-22T15:16:31;33.50;77.20
9915;DHT22;4996;48.746;9.174;2023-06-22T15:18:56;33.50;75.90
9915;DHT22;4996;48.746;9.174;2023-06-22T15:21:22;33.20;76.40
9915;DHT22;4996;48.746;9.174;2023-06-22T15:23:48;33.20;76.60
9915;DHT22;4996;48.746;9.174;2023-06-22T15:26:13;33.10;76.50
9915;DHT22;4996;48.746;9.174;2023-06-22T15:28:39;32.90;76.10
9915;DHT22;4996;48.746;9.174;2023-06-22T15:31:05;33.00;77.20
9915;DHT22;4996;48.746;9.174;2023-06-22T15:33:31;33.20;75.90
9915;DHT22;4996;48.746;9.174;2023-06-22T15:35:57;33.20;76.50
9915;DHT22;4996;48.746;9.174;2023-06-22T15:38:23;33.30;75.30
9915;DHT22;4996;48.746;9.174;2023-06-22T15:40:48;33.30;75.50
9915;DHT22;4996;48.746;9.174;2023-06-22T15:43:14;33.20;74.60
9915;DHT22;4996;48.746;9.174;2023-06-22T15:45:40;32.90;74.70
9915;DHT22;4996;48.746;9.174;2023-06-22T15:48:05;32.90;74.20
9915;DHT22;4996;48.746;9.174;2023-06-22T15:50:31;32.80;74.20
9915;DHT22;4996;48.746;9.174;2023-06-22T15:52:56;32.50;74.40
9915;DHT22;4996;48.746;9.174;2023-06-22T15:55:22;32.60;75.20
9915;DHT22;4996;48.746;9.174;2023-06-22T15:57:48;32.50;74.30